sensor_id;sensor_type;location;lat;lon;timestamp;P1;durP1;ratioP1;P2;durP2;ratioP2
22097;SDS011;11215;51.938;8.464;2023-08-12T00:00:17;4.87;;;4.00;;
22097;SDS011;11215;51.938;8.464;2023-08-12T00:05:13;7.50;;;4.80;;
22097;SDS011;11215;51.938;8.464;2023-08-12T00:07:54;4.70;;;4.00;;
22097;SDS011;11215;51.938;8.464;2023-08-12T00:10:20;6.30;;;4.97;;
22097;SDS011;11215;51.938;8.464;2023-08-12T00:18:53;5.17;;;4.03;;
22097;SDS011;11215;51.938;8.464;2023-08-12T00:21:27;4.60;;;4.00;;
22097;SDS011;11215;51.938;8.464;2023-08-12T00:23:52;6.50;;;4.73;;
22097;SDS011;11215;51.938;8.464;2023-08-12T00:36:24;5.50;;;4.60;;
22097;SDS011;11215;51.938;8.464;2023-08-12T00:39:03;4.90;;;4.33;;
22097;SDS011;11215;51.938;8.464;2023-08-12T00:41:29;6.53;;;4.73;;
22097;SDS011;11215;51.938;8.464;2023-08-12T00:49:40;4.67;;;4.20;;
22097;SDS011;11215;51.938;8.464;2023-08-12T00:52:12;8.10;;;5.10;;
22097;SDS011;11215;51.938;8.464;2023-08-12T00:54:39;5.93;;;4.87;;
22097;SDS011;11215;51.938;8.464;2023-08-12T00:59:55;5.30;;;4.80;;
22097;SDS011;11215;51.938;8.464;2023-08-12T01:02:23;8.67;;;4.90;;
22097;SDS011;11215;51.938;8.464;2023-08-12T01:04:49;6.90;;;5.07;;
22097;SDS011;11215;51.938;8.464;2023-08-12T01:07:14;9.33;;;5.43;;
22097;SDS011;11215;51.938;8.464;2023-08-12T01:09:54;6.47;;;4.93;;
22097;SDS011;11215;51.938;8.464;2023-08-12T01:12:41;6.00;;;5.37;;
22097;SDS011;11215;51.938;8.464;2023-08-12T01:25:42;7.23;;;5.10;;
22097;SDS011;11215;51.938;8.464;2023-08-12T01:34:45;7.00;;;4.57;;
22097;SDS011;11215;51.938;8.464;2023-08-12T01:37:32;6.93;;;5.17;;
22097;SDS011;11215;51.938;8.464;2023-08-12T01:46:22;5.40;;;4.90;;
22097;SDS011;11215;51.938;8.464;2023-08-12T01:52:09;8.13;;;5.03;;
22097;SDS011;11215;51.938;8.464;2023-08-12T01:57:57;6.90;;;5.83;;
22097;SDS011;11215;51.938;8.464;2023-08-12T02:03:44;6.17;;;5.57;;
22097;SDS011;11215;51.938;8.464;2023-08-12T02:09:32;6.17;;;5.23;;
22097;SDS011;11215;51.938;8.464;2023-08-12T02:15:19;8.27;;;5.93;;
22097;SDS011;11215;51.938;8.464;2023-08-12T02:21:07;6.33;;;5.10;;
22097;SDS011;11215;51.938;8.464;2023-08-12T02:26:55;6.23;;;5.13;;
22097;SDS011;11215;51.938;8.464;2023-08-12T02:32:43;7.37;;;5.77;;
22097;SDS011;11215;51.938;8.464;2023-08-12T02:38:30;7.33;;;6.33;;
22097;SDS011;11215;51.938;8.464;2023-08-12T02:41:00;8.73;;;6.43;;
22097;SDS011;11215;51.938;8.464;2023-08-12T02:43:26;13.10;;;7.17;;
22097;SDS011;11215;51.938;8.464;2023-08-12T02:48:32;9.27;;;6.87;;
22097;SDS011;11215;51.938;8.464;2023-08-12T02:50:57;7.97;;;7.00;;
22097;SDS011;11215;51.938;8.464;2023-08-12T02:53:36;8.63;;;6.90;;
22097;SDS011;11215;51.938;8.464;2023-08-12T02:56:01;6.83;;;6.20;;
22097;SDS011;11215;51.938;8.464;2023-08-12T03:07:44;10.17;;;7.73;;
22097;SDS011;11215;51.938;8.464;2023-08-12T03:13:32;8.80;;;7.50;;
22097;SDS011;11215;51.938;8.464;2023-08-12T03:19:06;9.13;;;8.23;;
22097;SDS011;11215;51.938;8.464;2023-08-12T03:21:32;8.17;;;6.10;;
22097;SDS011;11215;51.938;8.464;2023-08-12T03:23:59;12.10;;;8.93;;
22097;SDS011;11215;51.938;8.464;2023-08-12T03:29:27;9.50;;;7.73;;
22097;SDS011;11215;51.938;8.464;2023-08-12T03:31:53;10.97;;;9.37;;
22097;SDS011;11215;51.938;8.464;2023-08-12T03:34:18;10.60;;;9.50;;
22097;SDS011;11215;51.938;8.464;2023-08-12T03:36:54;11.27;;;9.70;;
22097;SDS011;11215;51.938;8.464;2023-08-12T03:39:20;12.30;;;9.53;;
22097;SDS011;11215;51.938;8.464;2023-08-12T03:41:45;13.40;;;10.07;;
22097;SDS011;11215;51.938;8.464;2023-08-12T03:44:11;11.07;;;9.60;;
22097;SDS011;11215;51.938;8.464;2023-08-12T03:46:37;12.10;;;10.17;;
22097;SDS011;11215;51.938;8.464;2023-08-12T03:49:03;10.87;;;8.47;;
22097;SDS011;11215;51.938;8.464;2023-08-12T03:51:28;10.17;;;9.20;;
22097;SDS011;11215;51.938;8.464;2023-08-12T03:53:55;11.27;;;10.17;;
22097;SDS011;11215;51.938;8.464;2023-08-12T03:56:22;11.27;;;10.10;;
22097;SDS011;11215;51.938;8.464;2023-08-12T03:58:47;12.23;;;9.63;;
22097;SDS011;11215;51.938;8.464;2023-08-12T04:01:13;11.90;;;10.53;;
22097;SDS011;11215;51.938;8.464;2023-08-12T04:03:39;11.30;;;10.20;;
22097;SDS011;11215;51.938;8.464;2023-08-12T04:06:04;12.80;;;11.33;;
22097;SDS011;11215;51.938;8.464;2023-08-12T04:08:30;10.67;;;9.37;;
22097;SDS011;11215;51.938;8.464;2023-08-12T04:10:57;11.87;;;10.60;;
22097;SDS011;11215;51.938;8.464;2023-08-12T04:13:25;11.50;;;10.40;;
22097;SDS011;11215;51.938;8.464;2023-08-12T04:15:51;12.10;;;10.60;;
22097;SDS011;11215;51.938;8.464;2023-08-12T04:18:34;10.53;;;9.23;;
22097;SDS011;11215;51.938;8.464;2023-08-12T04:21:00;13.10;;;11.73;;
22097;SDS011;11215;51.938;8.464;2023-08-12T04:23:26;10.50;;;9.30;;
22097;SDS011;11215;51.938;8.464;2023-08-12T04:28:32;13.50;;;12.07;;
22097;SDS011;11215;51.938;8.464;2023-08-12T04:30:57;13.17;;;11.63;;
22097;SDS011;11215;51.938;8.464;2023-08-12T04:33:23;13.70;;;12.30;;
22097;SDS011;11215;51.938;8.464;2023-08-12T04:35:49;14.70;;;11.67;;
22097;SDS011;11215;51.938;8.464;2023-08-12T04:38:15;13.83;;;12.33;;
22097;SDS011;11215;51.938;8.464;2023-08-12T04:40:41;12.90;;;11.50;;
22097;SDS011;11215;51.938;8.464;2023-08-12T04:43:08;13.93;;;12.47;;
22097;SDS011;11215;51.938;8.464;2023-08-12T04:45:34;14.93;;;12.47;;
22097;SDS011;11215;51.938;8.464;2023-08-12T04:48:00;13.93;;;12.53;;
22097;SDS011;11215;51.938;8.464;2023-08-12T04:50:29;14.87;;;13.07;;
22097;SDS011;11215;51.938;8.464;2023-08-12T04:53:01;12.47;;;10.50;;
22097;SDS011;11215;51.938;8.464;2023-08-12T04:55:27;12.50;;;10.87;;
22097;SDS011;11215;51.938;8.464;2023-08-12T04:57:53;15.33;;;12.87;;
22097;SDS011;11215;51.938;8.464;2023-08-12T05:00:19;12.90;;;11.03;;
22097;SDS011;11215;51.938;8.464;2023-08-12T05:02:45;10.90;;;9.07;;
22097;SDS011;11215;51.938;8.464;2023-08-12T05:05:11;12.33;;;10.87;;
22097;SDS011;11215;51.938;8.464;2023-08-12T05:07:36;12.17;;;10.93;;
22097;SDS011;11215;51.938;8.464;2023-08-12T05:10:02;15.17;;;11.33;;
22097;SDS011;11215;51.938;8.464;2023-08-12T05:12:28;13.87;;;11.00;;
22097;SDS011;11215;51.938;8.464;2023-08-12T05:14:53;13.93;;;11.30;;
22097;SDS011;11215;51.938;8.464;2023-08-12T05:17:19;14.13;;;11.73;;
22097;SDS011;11215;51.938;8.464;2023-08-12T05:19:45;13.17;;;10.37;;
22097;SDS011;11215;51.938;8.464;2023-08-12T05:22:10;11.50;;;10.20;;
22097;SDS011;11215;51.938;8.464;2023-08-12T05:24:36;14.73;;;11.87;;
22097;SDS011;11215;51.938;8.464;2023-08-12T05:27:02;10.73;;;9.60;;
22097;SDS011;11215;51.938;8.464;2023-08-12T05:29:29;11.90;;;9.83;;
22097;SDS011;11215;51.938;8.464;2023-08-12T05:31:55;11.33;;;10.10;;
22097;SDS011;11215;51.938;8.464;2023-08-12T05:36:53;11.13;;;9.77;;
22097;SDS011;11215;51.938;8.464;2023-08-12T05:39:19;14.03;;;11.23;;
22097;SDS011;11215;51.938;8.464;2023-08-12T05:41:45;13.67;;;12.17;;
22097;SDS011;11215;51.938;8.464;2023-08-12T05:44:11;13.47;;;12.07;;
22097;SDS011;11215;51.938;8.464;2023-08-12T05:46:36;14.43;;;12.50;;
22097;SDS011;11215;51.938;8.464;2023-08-12T05:49:02;13.67;;;12.33;;
22097;SDS011;11215;51.938;8.464;2023-08-12T05:51:34;10.33;;;9.30;;
22097;SDS011;11215;51.938;8.464;2023-08-12T05:54:00;13.97;;;12.57;;
22097;SDS011;11215;51.938;8.464;2023-08-12T05:56:25;16.37;;;12.23;;
22097;SDS011;11215;51.938;8.464;2023-08-12T05:58:54;13.93;;;12.30;;
22097;SDS011;11215;51.938;8.464;2023-08-12T06:01:20;13.63;;;11.93;;
22097;SDS011;11215;51.938;8.464;2023-08-12T06:03:45;11.97;;;10.83;;
22097;SDS011;11215;51.938;8.464;2023-08-12T06:06:11;11.10;;;9.90;;
22097;SDS011;11215;51.938;8.464;2023-08-12T06:08:36;13.53;;;10.60;;
22097;SDS011;11215;51.938;8.464;2023-08-12T06:11:02;15.77;;;12.77;;
22097;SDS011;11215;51.938;8.464;2023-08-12T06:13:28;13.80;;;11.33;;
22097;SDS011;11215;51.938;8.464;2023-08-12T06:15:54;17.00;;;12.93;;
22097;SDS011;11215;51.938;8.464;2023-08-12T06:18:19;12.80;;;11.47;;
22097;SDS011;11215;51.938;8.464;2023-08-12T06:20:45;11.97;;;10.70;;
22097;SDS011;11215;51.938;8.464;2023-08-12T06:23:11;12.53;;;10.70;;
22097;SDS011;11215;51.938;8.464;2023-08-12T06:25:37;15.97;;;13.77;;
22097;SDS011;11215;51.938;8.464;2023-08-12T06:28:03;14.03;;;11.23;;
22097;SDS011;11215;51.938;8.464;2023-08-12T06:30:34;14.03;;;10.67;;
22097;SDS011;11215;51.938;8.464;2023-08-12T06:33:00;11.10;;;10.00;;
22097;SDS011;11215;51.938;8.464;2023-08-12T06:35:26;12.50;;;11.20;;
22097;SDS011;11215;51.938;8.464;2023-08-12T06:37:51;13.67;;;10.03;;
22097;SDS011;11215;51.938;8.464;2023-08-12T06:40:18;10.33;;;9.17;;
22097;SDS011;11215;51.938;8.464;2023-08-12T06:42:44;14.07;;;12.37;;
22097;SDS011;11215;51.938;8.464;2023-08-12T06:45:10;10.73;;;9.50;;
22097;SDS011;11215;51.938;8.464;2023-08-12T06:47:35;14.90;;;11.63;;
22097;SDS011;11215;51.938;8.464;2023-08-12T06:50:01;11.93;;;10.57;;
22097;SDS011;11215;51.938;8.464;2023-08-12T06:52:27;16.70;;;11.00;;
22097;SDS011;11215;51.938;8.464;2023-08-12T06:54:52;11.73;;;10.53;;
22097;SDS011;11215;51.938;8.464;2023-08-12T06:57:18;11.63;;;9.83;;
22097;SDS011;11215;51.938;8.464;2023-08-12T06:59:52;11.50;;;10.13;;
22097;SDS011;11215;51.938;8.464;2023-08-12T07:02:18;10.40;;;9.40;;
22097;SDS011;11215;51.938;8.464;2023-08-12T07:04:43;9.80;;;8.83;;
22097;SDS011;11215;51.938;8.464;2023-08-12T07:07:09;10.03;;;9.03;;
22097;SDS011;11215;51.938;8.464;2023-08-12T07:09:34;11.97;;;10.27;;
22097;SDS011;11215;51.938;8.464;2023-08-12T07:12:00;10.57;;;9.17;;
22097;SDS011;11215;51.938;8.464;2023-08-12T07:14:26;10.10;;;9.10;;
22097;SDS011;11215;51.938;8.464;2023-08-12T07:16:53;10.53;;;9.43;;
22097;SDS011;11215;51.938;8.464;2023-08-12T07:19:19;11.60;;;10.50;;
22097;SDS011;11215;51.938;8.464;2023-08-12T07:21:44;11.33;;;10.13;;
22097;SDS011;11215;51.938;8.464;2023-08-12T07:24:10;10.33;;;9.23;;
22097;SDS011;11215;51.938;8.464;2023-08-12T07:26:35;9.77;;;8.77;;
22097;SDS011;11215;51.938;8.464;2023-08-12T07:29:01;11.37;;;10.27;;
22097;SDS011;11215;51.938;8.464;2023-08-12T07:31:27;12.43;;;11.13;;
22097;SDS011;11215;51.938;8.464;2023-08-12T07:36:23;11.10;;;10.07;;
22097;SDS011;11215;51.938;8.464;2023-08-12T07:38:49;11.80;;;10.27;;
22097;SDS011;11215;51.938;8.464;2023-08-12T07:41:14;9.63;;;8.43;;
22097;SDS011;11215;51.938;8.464;2023-08-12T07:43:40;11.33;;;10.23;;
22097;SDS011;11215;51.938;8.464;2023-08-12T07:46:05;10.37;;;9.00;;
22097;SDS011;11215;51.938;8.464;2023-08-12T07:48:31;11.63;;;10.40;;
22097;SDS011;11215;51.938;8.464;2023-08-12T07:50:57;10.37;;;9.37;;
22097;SDS011;11215;51.938;8.464;2023-08-12T07:53:23;9.47;;;7.83;;
22097;SDS011;11215;51.938;8.464;2023-08-12T07:55:50;9.53;;;8.63;;
22097;SDS011;11215;51.938;8.464;2023-08-12T07:58:20;9.67;;;8.67;;
22097;SDS011;11215;51.938;8.464;2023-08-12T08:00:46;9.73;;;8.80;;
22097;SDS011;11215;51.938;8.464;2023-08-12T08:03:11;10.63;;;8.70;;
22097;SDS011;11215;51.938;8.464;2023-08-12T08:05:39;11.20;;;9.90;;
22097;SDS011;11215;51.938;8.464;2023-08-12T08:08:07;9.80;;;8.90;;
22097;SDS011;11215;51.938;8.464;2023-08-12T08:10:32;11.93;;;9.93;;
22097;SDS011;11215;51.938;8.464;2023-08-12T08:12:58;9.83;;;8.83;;
22097;SDS011;11215;51.938;8.464;2023-08-12T08:15:23;9.50;;;8.50;;
22097;SDS011;11215;51.938;8.464;2023-08-12T08:17:49;9.00;;;8.10;;
22097;SDS011;11215;51.938;8.464;2023-08-12T08:20:15;9.70;;;8.70;;
22097;SDS011;11215;51.938;8.464;2023-08-12T08:22:40;8.83;;;7.93;;
22097;SDS011;11215;51.938;8.464;2023-08-12T08:25:12;10.43;;;9.33;;
22097;SDS011;11215;51.938;8.464;2023-08-12T08:27:38;9.33;;;8.43;;
22097;SDS011;11215;51.938;8.464;2023-08-12T08:30:04;12.83;;;9.90;;
22097;SDS011;11215;51.938;8.464;2023-08-12T08:32:32;10.73;;;9.63;;
22097;SDS011;11215;51.938;8.464;2023-08-12T08:34:58;9.63;;;8.73;;
22097;SDS011;11215;51.938;8.464;2023-08-12T08:37:24;9.73;;;8.80;;
22097;SDS011;11215;51.938;8.464;2023-08-12T08:39:49;9.25;;;8.40;;
22097;SDS011;11215;51.938;8.464;2023-08-12T08:42:15;11.37;;;10.27;;
22097;SDS011;11215;51.938;8.464;2023-08-12T08:44:43;10.10;;;9.17;;
22097;SDS011;11215;51.938;8.464;2023-08-12T08:47:10;11.02;;;9.40;;
22097;SDS011;11215;51.938;8.464;2023-08-12T08:49:39;10.43;;;9.43;;
22097;SDS011;11215;51.938;8.464;2023-08-12T08:52:06;8.35;;;7.65;;
22097;SDS011;11215;51.938;8.464;2023-08-12T08:54:32;11.55;;;9.52;;
22097;SDS011;11215;51.938;8.464;2023-08-12T08:56:59;9.30;;;8.40;;
22097;SDS011;11215;51.938;8.464;2023-08-12T08:59:25;11.30;;;10.10;;
22097;SDS011;11215;51.938;8.464;2023-08-12T09:01:51;11.57;;;10.43;;
22097;SDS011;11215;51.938;8.464;2023-08-12T09:04:18;7.53;;;6.83;;
22097;SDS011;11215;51.938;8.464;2023-08-12T09:06:46;8.63;;;7.20;;
22097;SDS011;11215;51.938;8.464;2023-08-12T09:09:15;10.10;;;8.73;;
22097;SDS011;11215;51.938;8.464;2023-08-12T09:11:57;11.57;;;10.30;;
22097;SDS011;11215;51.938;8.464;2023-08-12T09:14:23;10.60;;;9.50;;
22097;SDS011;11215;51.938;8.464;2023-08-12T09:16:48;7.90;;;7.20;;
22097;SDS011;11215;51.938;8.464;2023-08-12T09:19:14;8.40;;;7.60;;
22097;SDS011;11215;51.938;8.464;2023-08-12T09:21:40;8.43;;;7.63;;
22097;SDS011;11215;51.938;8.464;2023-08-12T09:24:14;11.37;;;10.17;;
22097;SDS011;11215;51.938;8.464;2023-08-12T09:26:41;9.03;;;8.23;;
22097;SDS011;11215;51.938;8.464;2023-08-12T09:29:11;7.27;;;6.63;;
22097;SDS011;11215;51.938;8.464;2023-08-12T09:31:36;8.77;;;7.80;;
22097;SDS011;11215;51.938;8.464;2023-08-12T09:34:05;7.90;;;7.00;;
22097;SDS011;11215;51.938;8.464;2023-08-12T09:36:34;8.25;;;7.45;;
22097;SDS011;11215;51.938;8.464;2023-08-12T09:39:00;7.10;;;6.40;;
22097;SDS011;11215;51.938;8.464;2023-08-12T09:41:31;7.23;;;6.53;;
22097;SDS011;11215;51.938;8.464;2023-08-12T09:43:56;6.13;;;5.50;;
22097;SDS011;11215;51.938;8.464;2023-08-12T09:46:27;7.10;;;5.00;;
22097;SDS011;11215;51.938;8.464;2023-08-12T09:48:53;5.40;;;5.00;;
22097;SDS011;11215;51.938;8.464;2023-08-12T09:51:19;5.82;;;4.63;;
22097;SDS011;11215;51.938;8.464;2023-08-12T09:53:47;4.55;;;4.15;;
22097;SDS011;11215;51.938;8.464;2023-08-12T09:56:19;4.15;;;3.75;;
22097;SDS011;11215;51.938;8.464;2023-08-12T09:58:48;5.47;;;3.85;;
22097;SDS011;11215;51.938;8.464;2023-08-12T10:01:16;3.95;;;3.60;;
22097;SDS011;11215;51.938;8.464;2023-08-12T10:03:45;3.58;;;3.28;;
22097;SDS011;11215;51.938;8.464;2023-08-12T10:06:14;3.53;;;3.22;;
22097;SDS011;11215;51.938;8.464;2023-08-12T10:08:41;3.42;;;3.15;;
22097;SDS011;11215;51.938;8.464;2023-08-12T10:11:07;3.42;;;3.13;;
22097;SDS011;11215;51.938;8.464;2023-08-12T10:13:34;3.53;;;3.22;;
22097;SDS011;11215;51.938;8.464;2023-08-12T10:15:59;3.22;;;2.92;;
22097;SDS011;11215;51.938;8.464;2023-08-12T10:18:25;3.28;;;2.97;;
22097;SDS011;11215;51.938;8.464;2023-08-12T10:20:56;3.28;;;2.97;;
22097;SDS011;11215;51.938;8.464;2023-08-12T10:23:23;3.38;;;2.90;;
22097;SDS011;11215;51.938;8.464;2023-08-12T10:25:50;2.60;;;2.40;;
22097;SDS011;11215;51.938;8.464;2023-08-12T10:28:19;2.92;;;2.60;;
22097;SDS011;11215;51.938;8.464;2023-08-12T10:30:45;3.67;;;2.70;;
22097;SDS011;11215;51.938;8.464;2023-08-12T10:33:11;2.40;;;2.20;;
22097;SDS011;11215;51.938;8.464;2023-08-12T10:35:45;2.22;;;2.03;;
22097;SDS011;11215;51.938;8.464;2023-08-12T10:38:31;2.28;;;2.10;;
22097;SDS011;11215;51.938;8.464;2023-08-12T10:43:55;4.03;;;2.35;;
22097;SDS011;11215;51.938;8.464;2023-08-12T10:46:23;3.35;;;1.98;;
22097;SDS011;11215;51.938;8.464;2023-08-12T10:49:01;2.38;;;2.10;;
22097;SDS011;11215;51.938;8.464;2023-08-12T10:51:40;1.90;;;1.80;;
22097;SDS011;11215;51.938;8.464;2023-08-12T10:54:48;2.20;;;2.00;;
22097;SDS011;11215;51.938;8.464;2023-08-12T10:59:52;3.33;;;1.98;;
22097;SDS011;11215;51.938;8.464;2023-08-12T11:02:20;2.13;;;1.92;;
22097;SDS011;11215;51.938;8.464;2023-08-12T11:04:59;2.75;;;2.10;;
22097;SDS011;11215;51.938;8.464;2023-08-12T11:10:11;1.80;;;1.70;;
22097;SDS011;11215;51.938;8.464;2023-08-12T11:12:53;1.70;;;1.60;;
22097;SDS011;11215;51.938;8.464;2023-08-12T11:15:36;4.50;;;1.83;;
22097;SDS011;11215;51.938;8.464;2023-08-12T11:18:04;2.08;;;1.55;;
22097;SDS011;11215;51.938;8.464;2023-08-12T11:20:34;1.92;;;1.55;;
22097;SDS011;11215;51.938;8.464;2023-08-12T11:23:02;2.22;;;1.40;;
22097;SDS011;11215;51.938;8.464;2023-08-12T11:25:29;0.90;;;0.90;;
22097;SDS011;11215;51.938;8.464;2023-08-12T11:27:56;1.23;;;1.13;;
22097;SDS011;11215;51.938;8.464;2023-08-12T11:30:22;1.17;;;1.10;;
22097;SDS011;11215;51.938;8.464;2023-08-12T11:32:49;1.00;;;1.00;;
22097;SDS011;11215;51.938;8.464;2023-08-12T11:35:16;1.63;;;0.95;;
22097;SDS011;11215;51.938;8.464;2023-08-12T11:37:50;0.90;;;0.90;;
22097;SDS011;11215;51.938;8.464;2023-08-12T11:40:21;1.10;;;1.08;;
22097;SDS011;11215;51.938;8.464;2023-08-12T11:42:48;1.30;;;1.20;;
22097;SDS011;11215;51.938;8.464;2023-08-12T11:45:22;0.98;;;0.98;;
22097;SDS011;11215;51.938;8.464;2023-08-12T11:47:51;1.52;;;1.42;;
22097;SDS011;11215;51.938;8.464;2023-08-12T11:50:21;1.45;;;1.35;;
22097;SDS011;11215;51.938;8.464;2023-08-12T11:52:48;3.75;;;2.08;;
22097;SDS011;11215;51.938;8.464;2023-08-12T11:55:15;2.85;;;1.90;;
22097;SDS011;11215;51.938;8.464;2023-08-12T11:57:42;4.57;;;1.73;;
22097;SDS011;11215;51.938;8.464;2023-08-12T12:00:09;3.28;;;1.70;;
22097;SDS011;11215;51.938;8.464;2023-08-12T12:02:40;3.25;;;2.10;;
22097;SDS011;11215;51.938;8.464;2023-08-12T12:05:23;3.53;;;1.77;;
22097;SDS011;11215;51.938;8.464;2023-08-12T12:07:52;3.90;;;1.63;;
22097;SDS011;11215;51.938;8.464;2023-08-12T12:10:36;2.63;;;1.48;;
22097;SDS011;11215;51.938;8.464;2023-08-12T12:13:02;1.92;;;1.52;;
22097;SDS011;11215;51.938;8.464;2023-08-12T12:15:29;3.65;;;1.83;;
22097;SDS011;11215;51.938;8.464;2023-08-12T12:17:55;3.67;;;2.53;;
22097;SDS011;11215;51.938;8.464;2023-08-12T12:20:22;5.15;;;2.90;;
22097;SDS011;11215;51.938;8.464;2023-08-12T12:22:48;4.47;;;2.85;;
22097;SDS011;11215;51.938;8.464;2023-08-12T12:25:14;2.92;;;1.85;;
22097;SDS011;11215;51.938;8.464;2023-08-12T12:27:52;3.75;;;1.63;;
22097;SDS011;11215;51.938;8.464;2023-08-12T12:30:19;3.45;;;1.40;;
22097;SDS011;11215;51.938;8.464;2023-08-12T12:32:44;3.00;;;1.50;;
22097;SDS011;11215;51.938;8.464;2023-08-12T12:35:10;1.40;;;1.30;;
22097;SDS011;11215;51.938;8.464;2023-08-12T12:37:38;2.00;;;1.40;;
22097;SDS011;11215;51.938;8.464;2023-08-12T12:40:04;1.45;;;1.33;;
22097;SDS011;11215;51.938;8.464;2023-08-12T12:42:30;1.45;;;1.10;;
22097;SDS011;11215;51.938;8.464;2023-08-12T12:44:56;0.95;;;0.90;;
22097;SDS011;11215;51.938;8.464;2023-08-12T12:47:22;2.28;;;1.00;;
22097;SDS011;11215;51.938;8.464;2023-08-12T12:49:47;2.38;;;1.13;;
22097;SDS011;11215;51.938;8.464;2023-08-12T12:52:13;2.60;;;1.33;;
22097;SDS011;11215;51.938;8.464;2023-08-12T12:54:55;1.70;;;1.15;;
22097;SDS011;11215;51.938;8.464;2023-08-12T12:57:22;2.17;;;1.35;;
22097;SDS011;11215;51.938;8.464;2023-08-12T12:59:48;3.50;;;1.42;;
22097;SDS011;11215;51.938;8.464;2023-08-12T13:02:14;2.88;;;1.55;;
22097;SDS011;11215;51.938;8.464;2023-08-12T13:04:39;1.40;;;1.23;;
22097;SDS011;11215;51.938;8.464;2023-08-12T13:07:05;2.58;;;1.50;;
22097;SDS011;11215;51.938;8.464;2023-08-12T13:09:30;1.55;;;1.20;;
22097;SDS011;11215;51.938;8.464;2023-08-12T13:12:05;1.10;;;1.00;;
22097;SDS011;11215;51.938;8.464;2023-08-12T13:14:31;1.20;;;1.10;;
22097;SDS011;11215;51.938;8.464;2023-08-12T13:16:56;1.30;;;1.20;;
22097;SDS011;11215;51.938;8.464;2023-08-12T13:19:22;2.50;;;1.25;;
22097;SDS011;11215;51.938;8.464;2023-08-12T13:21:48;4.75;;;2.55;;
22097;SDS011;11215;51.938;8.464;2023-08-12T13:24:13;5.05;;;2.72;;
22097;SDS011;11215;51.938;8.464;2023-08-12T13:26:40;4.07;;;2.20;;
22097;SDS011;11215;51.938;8.464;2023-08-12T13:29:06;5.57;;;2.55;;
22097;SDS011;11215;51.938;8.464;2023-08-12T13:31:32;3.03;;;1.85;;
22097;SDS011;11215;51.938;8.464;2023-08-12T13:33:58;2.40;;;1.50;;
22097;SDS011;11215;51.938;8.464;2023-08-12T13:36:23;1.88;;;1.20;;
22097;SDS011;11215;51.938;8.464;2023-08-12T13:38:49;2.50;;;1.73;;
22097;SDS011;11215;51.938;8.464;2023-08-12T13:41:15;1.60;;;1.30;;
22097;SDS011;11215;51.938;8.464;2023-08-12T13:43:41;1.30;;;1.20;;
22097;SDS011;11215;51.938;8.464;2023-08-12T13:46:06;1.50;;;1.40;;
22097;SDS011;11215;51.938;8.464;2023-08-12T13:48:32;1.63;;;1.52;;
22097;SDS011;11215;51.938;8.464;2023-08-12T13:50:58;2.35;;;1.20;;
22097;SDS011;11215;51.938;8.464;2023-08-12T13:53:23;1.50;;;1.40;;
22097;SDS011;11215;51.938;8.464;2023-08-12T13:55:58;1.92;;;1.83;;
22097;SDS011;11215;51.938;8.464;2023-08-12T13:58:24;2.40;;;2.20;;
22097;SDS011;11215;51.938;8.464;2023-08-12T14:00:49;3.00;;;2.20;;
22097;SDS011;11215;51.938;8.464;2023-08-12T14:05:44;1.80;;;1.70;;
22097;SDS011;11215;51.938;8.464;2023-08-12T14:08:09;2.50;;;2.30;;
22097;SDS011;11215;51.938;8.464;2023-08-12T14:10:35;2.25;;;1.70;;
22097;SDS011;11215;51.938;8.464;2023-08-12T14:13:00;3.50;;;2.50;;
22097;SDS011;11215;51.938;8.464;2023-08-12T14:15:26;4.13;;;2.78;;
22097;SDS011;11215;51.938;8.464;2023-08-12T14:17:52;2.53;;;2.33;;
22097;SDS011;11215;51.938;8.464;2023-08-12T14:20:17;2.45;;;2.25;;
22097;SDS011;11215;51.938;8.464;2023-08-12T14:22:45;4.50;;;2.70;;
22097;SDS011;11215;51.938;8.464;2023-08-12T14:25:11;3.35;;;2.50;;
22097;SDS011;11215;51.938;8.464;2023-08-12T14:27:39;2.78;;;2.58;;
22097;SDS011;11215;51.938;8.464;2023-08-12T14:30:05;2.90;;;2.70;;
22097;SDS011;11215;51.938;8.464;2023-08-12T14:32:35;2.97;;;2.70;;
22097;SDS011;11215;51.938;8.464;2023-08-12T14:35:00;2.67;;;2.47;;
22097;SDS011;11215;51.938;8.464;2023-08-12T14:37:27;3.17;;;2.88;;
22097;SDS011;11215;51.938;8.464;2023-08-12T14:39:53;1.92;;;1.83;;
22097;SDS011;11215;51.938;8.464;2023-08-12T14:42:19;2.47;;;2.10;;
22097;SDS011;11215;51.938;8.464;2023-08-12T14:44:44;8.23;;;3.58;;
22097;SDS011;11215;51.938;8.464;2023-08-12T14:47:10;4.68;;;3.30;;
22097;SDS011;11215;51.938;8.464;2023-08-12T14:49:35;6.40;;;3.72;;
22097;SDS011;11215;51.938;8.464;2023-08-12T14:52:01;8.13;;;3.67;;
22097;SDS011;11215;51.938;8.464;2023-08-12T14:54:33;7.32;;;3.33;;
22097;SDS011;11215;51.938;8.464;2023-08-12T14:56:58;5.57;;;3.30;;
22097;SDS011;11215;51.938;8.464;2023-08-12T14:59:24;4.32;;;2.90;;
22097;SDS011;11215;51.938;8.464;2023-08-12T15:01:50;4.70;;;3.22;;
22097;SDS011;11215;51.938;8.464;2023-08-12T15:04:15;4.47;;;2.92;;
22097;SDS011;11215;51.938;8.464;2023-08-12T15:06:41;3.25;;;2.45;;
22097;SDS011;11215;51.938;8.464;2023-08-12T15:09:09;3.65;;;2.75;;
22097;SDS011;11215;51.938;8.464;2023-08-12T15:11:35;9.25;;;5.15;;
22097;SDS011;11215;51.938;8.464;2023-08-12T15:14:00;11.02;;;5.13;;
22097;SDS011;11215;51.938;8.464;2023-08-12T15:16:26;8.32;;;5.10;;
22097;SDS011;11215;51.938;8.464;2023-08-12T15:18:52;8.68;;;4.57;;
22097;SDS011;11215;51.938;8.464;2023-08-12T15:21:18;7.22;;;4.43;;
22097;SDS011;11215;51.938;8.464;2023-08-12T15:23:43;5.55;;;3.20;;
22097;SDS011;11215;51.938;8.464;2023-08-12T15:26:09;5.47;;;3.17;;
22097;SDS011;11215;51.938;8.464;2023-08-12T15:28:38;2.95;;;2.00;;
22097;SDS011;11215;51.938;8.464;2023-08-12T15:31:03;1.60;;;1.50;;
22097;SDS011;11215;51.938;8.464;2023-08-12T15:33:29;1.50;;;1.40;;
22097;SDS011;11215;51.938;8.464;2023-08-12T15:35:55;1.50;;;1.33;;
22097;SDS011;11215;51.938;8.464;2023-08-12T15:38:21;3.17;;;1.77;;
22097;SDS011;11215;51.938;8.464;2023-08-12T15:40:46;1.60;;;1.50;;
22097;SDS011;11215;51.938;8.464;2023-08-12T15:43:12;1.85;;;1.70;;
22097;SDS011;11215;51.938;8.464;2023-08-12T15:45:41;1.58;;;1.23;;
22097;SDS011;11215;51.938;8.464;2023-08-12T15:48:07;1.27;;;1.17;;
22097;SDS011;11215;51.938;8.464;2023-08-12T15:50:34;2.25;;;0.90;;
22097;SDS011;11215;51.938;8.464;2023-08-12T15:53:00;2.25;;;1.20;;
22097;SDS011;11215;51.938;8.464;2023-08-12T15:55:25;1.20;;;1.10;;
22097;SDS011;11215;51.938;8.464;2023-08-12T15:57:51;3.53;;;1.90;;
22097;SDS011;11215;51.938;8.464;2023-08-12T16:00:17;6.55;;;3.30;;
22097;SDS011;11215;51.938;8.464;2023-08-12T16:02:42;4.77;;;2.60;;
22097;SDS011;11215;51.938;8.464;2023-08-12T16:05:08;3.13;;;2.10;;
22097;SDS011;11215;51.938;8.464;2023-08-12T16:07:36;3.60;;;1.70;;
22097;SDS011;11215;51.938;8.464;2023-08-12T16:10:04;1.27;;;1.00;;
22097;SDS011;11215;51.938;8.464;2023-08-12T16:12:30;0.97;;;0.87;;
22097;SDS011;11215;51.938;8.464;2023-08-12T16:14:56;1.53;;;0.93;;
22097;SDS011;11215;51.938;8.464;2023-08-12T16:17:23;1.83;;;0.80;;
22097;SDS011;11215;51.938;8.464;2023-08-12T16:19:49;2.73;;;0.93;;
22097;SDS011;11215;51.938;8.464;2023-08-12T16:22:14;0.80;;;0.80;;
22097;SDS011;11215;51.938;8.464;2023-08-12T16:24:40;0.83;;;0.83;;
22097;SDS011;11215;51.938;8.464;2023-08-12T16:27:08;0.87;;;0.87;;
22097;SDS011;11215;51.938;8.464;2023-08-12T16:29:33;1.73;;;1.20;;
22097;SDS011;11215;51.938;8.464;2023-08-12T16:32:11;1.60;;;0.80;;
22097;SDS011;11215;51.938;8.464;2023-08-12T16:34:37;2.03;;;0.80;;
22097;SDS011;11215;51.938;8.464;2023-08-12T16:37:02;0.83;;;0.83;;
22097;SDS011;11215;51.938;8.464;2023-08-12T16:39:29;1.67;;;0.97;;
22097;SDS011;11215;51.938;8.464;2023-08-12T16:41:55;1.47;;;0.90;;